Time;durP1;ratioP1;P1;durP2;ratioP2;P2;SDS_P1;SDS_P2;PMS_P1;PMS_P2;Temp;Humidity;BMP_temperature;BMP_pressure;BME280_temperature;BME280_humidity;BME280_pressure;Samples;Min_cycle;Max_cycle;Signal;HPM_P1;HPM_P2
2023/11/26 00:00:25;;;;;;;29.40;10.37;;;;;;;-141.23;100.00;62281.09;5124868;27;20078;-70
2023/11/26 00:02:51;;;;;;;29.13;10.87;;;;;;;-141.23;100.00;62281.09;5124848;27;20039;-70
2023/11/26 00:05:19;;;;;;;34.03;13.77;;;;;;;-141.23;100.00;62281.09;5159107;27;20469;-70
2023/11/26 00:07:45;;;;;;;35.00;13.10;;;;;;;-141.23;100.00;62281.09;5124684;27;20065;-70
2023/11/26 00:10:13;;;;;;;24.77;11.23;;;;;;;-141.23;100.00;62281.09;5124500;27;20052;-70
2023/11/26 00:12:39;;;;;;;12.13;6.13;;;;;;;-141.23;100.00;62281.09;5124201;27;20039;-69
2023/11/26 00:15:06;;;;;;;7.47;3.83;;;;;;;-141.23;100.00;62281.09;5158942;27;20050;-69
2023/11/26 00:17:32;;;;;;;21.90;9.17;;;;;;;-141.23;100.00;62281.09;5141673;27;20047;-68
2023/11/26 00:20:00;;;;;;;27.40;11.47;;;;;;;-141.23;100.00;62281.09;5158676;27;20050;-69
2023/11/26 00:22:28;;;;;;;19.20;9.30;;;;;;;-141.23;100.00;62281.09;5107371;27;20145;-69
2023/11/26 00:24:55;;;;;;;30.07;12.60;;;;;;;-141.23;100.00;62281.09;5125379;27;20050;-69
2023/11/26 00:27:22;;;;;;;24.97;10.87;;;;;;;-141.23;100.00;62281.09;5141702;27;20099;-68
2023/11/26 00:29:49;;;;;;;20.87;9.93;;;;;;;-141.23;100.00;62281.09;5158414;27;20078;-69
2023/11/26 00:32:15;;;;;;;28.93;11.97;;;;;;;-141.23;100.00;62281.09;5124456;27;20118;-69
2023/11/26 00:34:41;;;;;;;20.70;9.23;;;;;;;-141.23;100.00;62281.09;5124384;27;20051;-68
2023/11/26 00:37:07;;;;;;;20.50;8.10;;;;;;;-141.23;100.00;62281.09;5140288;27;20062;-69
2023/11/26 00:39:37;;;;;;;22.57;9.63;;;;;;;-141.23;100.00;62281.09;5121254;27;20061;-69
2023/11/26 00:42:04;;;;;;;21.33;10.10;;;;;;;-141.23;100.00;62281.09;5138113;27;20042;-69
2023/11/26 00:44:30;;;;;;;26.67;10.27;;;;;;;-141.23;100.00;62281.09;5137892;27;20367;-69
2023/11/26 00:46:56;;;;;;;26.90;10.33;;;;;;;-141.23;100.00;62281.09;5138101;27;20459;-69
2023/11/26 00:49:22;;;;;;;21.87;11.23;;;;;;;-141.23;100.00;62281.09;5155506;27;20049;-68
2023/11/26 00:51:48;;;;;;;27.20;11.00;;;;;;;-141.23;100.00;62281.09;5120500;27;20039;-69
2023/11/26 00:54:14;;;;;;;25.93;9.33;;;;;;;-141.23;100.00;62281.09;5119948;27;20089;-68
2023/11/26 00:56:42;;;;;;;28.40;11.20;;;;;;;-141.23;100.00;62281.09;5099497;27;20145;-69
2023/11/26 00:59:08;;;;;;;27.53;10.27;;;;;;;-141.23;100.00;62281.09;5022417;28;20048;-70
2023/11/26 01:01:33;;;;;;;19.53;7.90;;;;;;;-141.23;100.00;62281.09;5055725;28;20102;-69
2023/11/26 01:03:59;;;;;;;22.30;9.00;;;;;;;-141.23;100.00;62281.09;5038854;28;20048;-69
2023/11/26 01:06:27;;;;;;;23.07;9.63;;;;;;;-141.23;100.00;62281.09;5038789;28;20192;-70
2023/11/26 01:08:55;;;;;;;27.37;11.03;;;;;;;-141.23;100.00;62281.09;5038986;28;20048;-69
2023/11/26 01:11:21;;;;;;;31.80;12.00;;;;;;;-141.23;100.00;62281.09;5038432;28;20090;-69
2023/11/26 01:13:47;;;;;;;36.13;13.77;;;;;;;-141.23;100.00;62281.09;5038166;28;20052;-69
2023/11/26 01:16:13;;;;;;;20.33;8.10;;;;;;;-141.23;100.00;62281.09;5038148;28;20052;-69
2023/11/26 01:18:40;;;;;;;19.83;9.60;;;;;;;-141.23;100.00;62281.09;5038112;28;20051;-69
2023/11/26 01:21:06;;;;;;;25.27;10.30;;;;;;;-141.23;100.00;62281.09;5038501;28;20048;-69
2023/11/26 01:23:32;;;;;;;32.17;13.27;;;;;;;-141.23;100.00;62281.09;5055377;28;20044;-69
2023/11/26 01:25:58;;;;;;;28.53;11.73;;;;;;;-141.23;100.00;62281.09;5038808;28;20462;-69
2023/11/26 01:28:25;;;;;;;27.90;11.03;;;;;;;-141.23;100.00;62281.09;5072132;28;20044;-68
2023/11/26 01:30:53;;;;;;;22.60;9.40;;;;;;;-141.23;100.00;62281.09;5108250;27;20065;-71
2023/11/26 01:33:21;;;;;;;17.60;6.87;;;;;;;-141.23;100.00;62281.09;5103715;27;20042;-69
2023/11/26 01:35:48;;;;;;;21.47;8.63;;;;;;;-141.23;100.00;62281.09;5120044;27;20053;-69
2023/11/26 01:38:15;;;;;;;21.23;9.07;;;;;;;-141.23;100.00;62281.09;5137226;27;20035;-69
2023/11/26 01:40:41;;;;;;;21.97;7.80;;;;;;;-141.23;100.00;62281.09;5137370;27;20047;-69
2023/11/26 01:43:07;;;;;;;35.23;12.43;;;;;;;-141.23;100.00;62281.09;5094753;28;20123;-69
2023/11/26 01:45:33;;;;;;;25.30;10.33;;;;;;;-141.23;100.00;62281.09;5044675;28;20051;-69
2023/11/26 01:47:59;;;;;;;23.10;9.27;;;;;;;-141.23;100.00;62281.09;5045305;28;20519;-69
2023/11/26 01:50:27;;;;;;;29.70;10.43;;;;;;;-141.23;100.00;62281.09;5041730;28;20052;-69
2023/11/26 01:52:55;;;;;;;18.10;7.90;;;;;;;-141.23;100.00;62281.09;5057585;28;20144;-68
2023/11/26 01:55:22;;;;;;;16.30;8.27;;;;;;;-141.23;100.00;62281.09;5074771;28;20367;-66
2023/11/26 01:57:54;;;;;;;23.27;8.83;;;;;;;-141.23;100.00;62281.09;5057685;28;20129;-68
2023/11/26 02:00:20;;;;;;;18.03;8.27;;;;;;;-141.23;100.00;62281.09;5074333;28;20430;-69
2023/11/26 02:02:47;;;;;;;22.53;8.97;;;;;;;-141.23;100.00;62281.09;5074447;28;20426;-68
2023/11/26 02:05:13;;;;;;;23.17;9.60;;;;;;;-141.23;100.00;62281.09;5057541;28;20084;-69
2023/11/26 02:07:40;;;;;;;20.97;8.53;;;;;;;-141.23;100.00;62281.09;5051046;28;20120;-68
2023/11/26 02:10:09;;;;;;;26.97;9.20;;;;;;;-141.23;100.00;62281.09;5073554;28;20040;-68
2023/11/26 02:12:40;;;;;;;24.87;10.17;;;;;;;-141.23;100.00;62281.09;5074801;28;20051;-68
2023/11/26 02:15:09;;;;;;;19.57;8.97;;;;;;;-141.23;100.00;62281.09;5094836;27;20047;-68
2023/11/26 02:17:39;;;;;;;27.47;10.13;;;;;;;-141.23;100.00;62281.09;5066374;27;20139;-68
2023/11/26 02:20:12;;;;;;;25.70;11.10;;;;;;;-141.23;100.00;62281.09;5114533;27;20195;-69
2023/11/26 02:22:39;;;;;;;10.63;6.20;;;;;;;-141.23;100.00;62281.09;5098887;27;20139;-68
2023/11/26 02:25:06;;;;;;;27.97;10.87;;;;;;;-141.23;100.00;62281.09;5097271;27;20050;-69
2023/11/26 02:27:33;;;;;;;19.63;8.30;;;;;;;-141.23;100.00;62281.09;5080643;27;20138;-70
2023/11/26 02:30:00;;;;;;;26.33;9.60;;;;;;;-141.23;100.00;62281.09;5080879;27;20054;-68
2023/11/26 02:32:32;;;;;;;23.00;9.17;;;;;;;-141.23;100.00;62281.09;5115030;27;20055;-69
2023/11/26 02:34:58;;;;;;;28.57;9.60;;;;;;;-141.23;100.00;62281.09;5114710;27;20047;-68
2023/11/26 02:37:24;;;;;;;23.63;9.53;;;;;;;-141.23;100.00;62281.09;5114198;27;20455;-69
2023/11/26 02:39:49;;;;;;;30.70;11.00;;;;;;;-141.23;100.00;62281.09;5066988;27;20173;-70
2023/11/26 02:42:15;;;;;;;23.47;9.83;;;;;;;-141.23;100.00;62281.09;5101894;27;20053;-69
2023/11/26 02:44:41;;;;;;;22.67;8.63;;;;;;;-141.23;100.00;62281.09;5119251;27;20042;-69
2023/11/26 02:47:07;;;;;;;25.20;9.23;;;;;;;-141.23;100.00;62281.09;5135837;27;20053;-70
2023/11/26 02:49:33;;;;;;;28.07;9.67;;;;;;;-141.23;100.00;62281.09;5118341;27;20360;-69
2023/11/26 02:51:59;;;;;;;32.13;10.47;;;;;;;-141.23;100.00;62281.09;5152966;27;20034;-69
2023/11/26 02:54:25;;;;;;;19.43;6.93;;;;;;;-141.23;100.00;62281.09;5152705;27;20381;-69
2023/11/26 02:56:51;;;;;;;10.73;5.37;;;;;;;-141.23;100.00;62281.09;5118252;27;20043;-69
2023/11/26 02:59:18;;;;;;;27.10;9.97;;;;;;;-141.23;100.00;62281.09;5134940;27;20087;-69
2023/11/26 03:01:44;;;;;;;16.87;7.00;;;;;;;-141.23;100.00;62281.09;5117604;27;20121;-69
2023/11/26 03:04:10;;;;;;;23.47;7.90;;;;;;;-141.23;100.00;62281.09;5135264;27;20064;-68
2023/11/26 03:06:38;;;;;;;32.53;10.97;;;;;;;-141.23;100.00;62281.09;5101326;27;20047;-68
2023/11/26 03:09:29;;;;;;;23.53;9.03;;;;;;;-141.23;100.00;62281.09;5152144;27;20046;-69
2023/11/26 03:14:39;;;;;;;23.33;8.67;;;;;;;-141.23;100.00;62281.09;5120451;27;20142;-68
2023/11/26 03:17:05;;;;;;;24.83;9.20;;;;;;;-141.23;100.00;62281.09;5135131;27;20137;-69
2023/11/26 03:19:30;;;;;;;14.73;5.93;;;;;;;-141.23;100.00;62281.09;5118160;27;20095;-68
2023/11/26 03:21:58;;;;;;;18.30;6.57;;;;;;;-141.23;100.00;62281.09;5134733;27;20034;-68
2023/11/26 03:24:24;;;;;;;6.83;3.57;;;;;;;-141.23;100.00;62281.09;5101046;27;20327;-68
2023/11/26 03:26:51;;;;;;;16.20;6.70;;;;;;;-141.23;100.00;62281.09;5118097;27;20047;-68
2023/11/26 03:29:17;;;;;;;4.67;2.83;;;;;;;-141.23;100.00;62281.09;5152249;27;20103;-69
2023/11/26 03:31:44;;;;;;;13.10;5.37;;;;;;;-141.23;100.00;62281.09;5118066;27;20458;-69
2023/11/26 03:34:10;;;;;;;13.33;6.47;;;;;;;-141.23;100.00;62281.09;5101106;27;20041;-69
2023/11/26 03:36:37;;;;;;;8.73;4.33;;;;;;;-141.23;100.00;62281.09;5117682;27;20381;-69
2023/11/26 03:39:03;;;;;;;5.60;3.10;;;;;;;-141.23;100.00;62281.09;5152644;27;20462;-70
2023/11/26 03:41:30;;;;;;;23.97;7.73;;;;;;;-141.23;100.00;62281.09;5118047;27;20107;-69
2023/11/26 03:43:57;;;;;;;22.50;7.67;;;;;;;-141.23;100.00;62281.09;5134939;27;20073;-70
2023/11/26 03:46:24;;;;;;;11.07;3.93;;;;;;;-141.23;100.00;62281.09;5152066;27;20039;-70
2023/11/26 03:48:51;;;;;;;21.03;7.73;;;;;;;-141.23;100.00;62281.09;5117801;27;20092;-68
2023/11/26 03:51:20;;;;;;;16.20;6.53;;;;;;;-141.23;100.00;62281.09;5135263;27;20493;-70
2023/11/26 03:53:47;;;;;;;23.30;8.13;;;;;;;-141.23;100.00;62281.09;5101203;27;20038;-69
2023/11/26 03:56:13;;;;;;;23.77;9.10;;;;;;;-141.23;100.00;62281.09;5135026;27;20484;-69
2023/11/26 03:58:42;;;;;;;26.77;8.80;;;;;;;-141.23;100.00;62281.09;5080152;28;20402;-70
2023/11/26 04:01:11;;;;;;;6.80;3.73;;;;;;;-141.23;100.00;62281.09;5080246;28;20055;-69
2023/11/26 04:03:40;;;;;;;7.27;2.87;;;;;;;-141.23;100.00;62281.09;5036243;28;20610;-70
2023/11/26 04:06:08;;;;;;;8.00;3.40;;;;;;;-141.23;100.00;62281.09;5019761;28;20045;-72
2023/11/26 04:08:34;;;;;;;7.93;4.57;;;;;;;-141.23;100.00;62281.09;5019892;28;20506;-70
2023/11/26 04:11:00;;;;;;;19.80;8.60;;;;;;;-141.23;100.00;62281.09;5003092;28;20076;-70
2023/11/26 04:13:30;;;;;;;39.40;14.13;;;;;;;-141.23;100.00;62281.09;4981786;28;20405;-70
2023/11/26 04:15:59;;;;;;;24.30;9.73;;;;;;;-141.23;100.00;62281.09;5016726;28;20063;-69
2023/11/26 04:18:28;;;;;;;33.75;14.45;;;;;;;-141.23;100.00;62281.09;5016692;28;20103;-69
2023/11/26 04:20:58;;;;;;;47.33;17.47;;;;;;;-141.23;100.00;62281.09;5000334;28;20060;-69
2023/11/26 04:23:25;;;;;;;10.53;5.40;;;;;;;-141.23;100.00;62281.09;4977235;28;20478;-69
2023/11/26 04:25:52;;;;;;;16.37;7.87;;;;;;;-141.23;100.00;62281.09;4973657;28;20054;-68
2023/11/26 04:28:18;;;;;;;9.60;3.47;;;;;;;-141.23;100.00;62281.09;4989926;28;20061;-68
2023/11/26 04:30:44;;;;;;;39.00;14.40;;;;;;;-141.23;100.00;62281.09;4994496;28;20062;-68
2023/11/26 04:33:10;;;;;;;29.80;11.00;;;;;;;-141.23;100.00;62281.09;5029037;28;20053;-68
2023/11/26 04:35:37;;;;;;;17.43;7.13;;;;;;;-141.23;100.00;62281.09;5029168;28;20505;-68
2023/11/26 04:38:03;;;;;;;13.80;6.50;;;;;;;-141.23;100.00;62281.09;4995776;28;20521;-68
2023/11/26 04:40:29;;;;;;;19.90;8.80;;;;;;;-141.23;100.00;62281.09;5012585;28;20069;-69
2023/11/26 04:42:55;;;;;;;8.33;4.10;;;;;;;-141.23;100.00;62281.09;4996302;28;20048;-69
2023/11/26 04:45:22;;;;;;;15.10;5.90;;;;;;;-141.23;100.00;62281.09;5029043;28;20069;-69
2023/11/26 04:47:48;;;;;;;22.10;8.73;;;;;;;-141.23;100.00;62281.09;5020790;28;20076;-69
2023/11/26 04:50:15;;;;;;;13.43;5.00;;;;;;;-141.23;100.00;62281.09;5023857;28;20058;-68
2023/11/26 04:52:41;;;;;;;29.10;10.00;;;;;;;-141.23;100.00;62281.09;5038489;28;20117;-68
2023/11/26 04:55:08;;;;;;;10.97;4.83;;;;;;;-141.23;100.00;62281.09;5055508;28;20476;-68
2023/11/26 04:57:35;;;;;;;11.83;4.60;;;;;;;-141.23;100.00;62281.09;5059009;28;20510;-68
2023/11/26 05:00:03;;;;;;;19.90;6.43;;;;;;;-141.23;100.00;62281.09;5078644;28;20055;-68
2023/11/26 05:02:32;;;;;;;15.70;6.57;;;;;;;-141.23;100.00;62281.09;5078932;28;20035;-67
2023/11/26 05:05:00;;;;;;;14.07;5.93;;;;;;;-141.23;100.00;62281.09;5095695;28;20044;-67
2023/11/26 05:07:29;;;;;;;8.55;3.40;;;;;;;-141.23;100.00;62281.09;5120903;27;20095;-68
2023/11/26 05:09:55;;;;;;;23.53;7.40;;;;;;;-141.23;100.00;62281.09;5154574;27;20050;-68
2023/11/26 05:12:21;;;;;;;16.37;6.83;;;;;;;-141.23;100.00;62281.09;5120294;27;20049;-70
2023/11/26 05:14:47;;;;;;;9.87;4.43;;;;;;;-141.23;100.00;62281.09;5137237;27;20077;-69
2023/11/26 05:17:14;;;;;;;10.67;3.73;;;;;;;-141.23;100.00;62281.09;5120361;27;20074;-69
2023/11/26 05:19:39;;;;;;;8.73;4.37;;;;;;;-141.23;100.00;62281.09;5081828;27;20051;-70
2023/11/26 05:22:05;;;;;;;18.77;6.90;;;;;;;-141.23;100.00;62281.09;5098732;27;20147;-69
2023/11/26 05:24:31;;;;;;;11.27;4.70;;;;;;;-141.23;100.00;62281.09;5097877;27;20154;-68
2023/11/26 05:26:57;;;;;;;7.87;3.57;;;;;;;-141.23;100.00;62281.09;5098447;27;20051;-68
2023/11/26 05:29:22;;;;;;;35.30;12.40;;;;;;;-141.23;100.00;62281.09;5064957;27;20047;-68
2023/11/26 05:31:51;;;;;;;16.47;6.07;;;;;;;-141.23;100.00;62281.09;5081797;27;20051;-68
2023/11/26 05:34:16;;;;;;;18.33;6.87;;;;;;;-141.23;100.00;62281.09;5098520;27;20130;-69
2023/11/26 05:36:42;;;;;;;15.57;6.60;;;;;;;-141.23;100.00;62281.09;5098140;27;20038;-68
2023/11/26 05:39:08;;;;;;;9.43;4.90;;;;;;;-141.23;100.00;62281.09;5098364;27;20054;-69
2023/11/26 05:41:34;;;;;;;9.90;4.07;;;;;;;-141.23;100.00;62281.09;5081454;27;20056;-67
2023/11/26 05:44:00;;;;;;;36.63;13.23;;;;;;;-141.23;100.00;62281.09;5064912;27;20104;-67
2023/11/26 05:46:26;;;;;;;15.50;6.00;;;;;;;-141.23;100.00;62281.09;5065111;27;20051;-68
2023/11/26 05:48:52;;;;;;;9.93;4.50;;;;;;;-141.23;100.00;62281.09;5098565;27;20047;-69
2023/11/26 05:51:22;;;;;;;28.17;7.90;;;;;;;-141.23;100.00;62281.09;5127466;27;20153;-68
2023/11/26 05:53:47;;;;;;;11.03;5.27;;;;;;;-141.23;100.00;62281.09;5119412;27;20474;-69
2023/11/26 05:56:15;;;;;;;16.60;6.03;;;;;;;-141.23;100.00;62281.09;5132793;27;20073;-73
2023/11/26 05:58:40;;;;;;;10.83;4.40;;;;;;;-141.23;100.00;62281.09;5099223;27;20030;-72
2023/11/26 06:01:06;;;;;;;9.80;4.17;;;;;;;-141.23;100.00;62281.09;5099436;27;20494;-75
2023/11/26 06:03:37;;;;;;;24.33;8.57;;;;;;;-141.23;100.00;62281.09;5099600;27;20053;-75
2023/11/26 06:06:04;;;;;;;7.67;3.57;;;;;;;-141.23;100.00;62281.09;5100266;27;20101;-75
2023/11/26 06:08:30;;;;;;;13.93;5.63;;;;;;;-141.23;100.00;62281.09;5101619;27;20103;-75
2023/11/26 06:10:57;;;;;;;10.87;5.27;;;;;;;-141.23;100.00;62281.09;5082544;27;20043;-71
2023/11/26 06:13:23;;;;;;;9.90;3.10;;;;;;;-141.23;100.00;62281.09;5100016;27;20054;-71
2023/11/26 06:15:49;;;;;;;13.43;4.27;;;;;;;-141.23;100.00;62281.09;5096693;27;20039;-73
2023/11/26 06:18:16;;;;;;;15.77;5.07;;;;;;;-141.23;100.00;62281.09;5133568;27;20459;-74
2023/11/26 06:20:42;;;;;;;3.53;1.90;;;;;;;-141.23;100.00;62281.09;5135998;27;20042;-74
2023/11/26 06:23:08;;;;;;;5.70;3.00;;;;;;;-141.23;100.00;62281.09;5102030;27;20355;-72
2023/11/26 06:26:00;;;;;;;9.43;3.50;;;;;;;-141.23;100.00;62281.09;5164579;27;20050;-75
2023/11/26 06:28:27;;;;;;;10.70;3.90;;;;;;;-141.23;100.00;62281.09;5119376;27;20047;-74
2023/11/26 06:30:54;;;;;;;15.33;4.87;;;;;;;-141.23;100.00;62281.09;5150859;27;20497;-76
2023/11/26 06:33:20;;;;;;;19.67;7.50;;;;;;;-141.23;100.00;62281.09;5135869;27;20486;-72
2023/11/26 06:35:46;;;;;;;16.17;6.00;;;;;;;-141.23;100.00;62281.09;5101092;27;20191;-75
2023/11/26 06:38:12;;;;;;;12.43;5.20;;;;;;;-141.23;100.00;62281.09;5116820;27;20091;-72
2023/11/26 06:40:38;;;;;;;9.37;3.20;;;;;;;-141.23;100.00;62281.09;5082739;27;20115;-72
2023/11/26 06:43:06;;;;;;;7.27;3.40;;;;;;;-141.23;100.00;62281.09;5095683;27;20125;-73
2023/11/26 06:45:33;;;;;;;7.87;3.73;;;;;;;-141.23;100.00;62281.09;5112647;27;20119;-76
2023/11/26 06:48:02;;;;;;;6.30;2.60;;;;;;;-141.23;100.00;62281.09;5063454;27;20047;-76
2023/11/26 06:50:28;;;;;;;10.63;4.10;;;;;;;-141.23;100.00;62281.09;5063165;27;20039;-74
2023/11/26 06:52:55;;;;;;;5.43;2.90;;;;;;;-141.23;100.00;62281.09;5076770;27;20046;-76
2023/11/26 06:55:20;;;;;;;6.87;2.67;;;;;;;-141.23;100.00;62281.09;5058487;27;20043;-73
2023/11/26 06:57:46;;;;;;;8.53;3.17;;;;;;;-141.23;100.00;62281.09;5088007;27;20048;-75
2023/11/26 07:00:13;;;;;;;5.43;2.90;;;;;;;-141.23;100.00;62281.09;5073990;27;20095;-76
2023/11/26 07:02:39;;;;;;;5.60;2.73;;;;;;;-141.23;100.00;62281.09;5057117;27;20043;-75
2023/11/26 07:05:06;;;;;;;6.37;3.30;;;;;;;-141.23;100.00;62281.09;5054438;27;20046;-75
2023/11/26 07:07:32;;;;;;;7.97;3.37;;;;;;;-141.23;100.00;62281.09;5093272;28;20059;-75
2023/11/26 07:09:58;;;;;;;8.20;3.57;;;;;;;-141.23;100.00;62281.09;5095877;28;20072;-76
2023/11/26 07:12:26;;;;;;;11.30;4.70;;;;;;;-141.23;100.00;62281.09;5062949;27;20035;-74
2023/11/26 07:14:53;;;;;;;9.13;4.20;;;;;;;-141.23;100.00;62281.09;5063272;27;20047;-76
2023/11/26 07:17:18;;;;;;;9.27;4.13;;;;;;;-141.23;100.00;62281.09;5079736;28;20173;-76
2023/11/26 07:19:44;;;;;;;4.63;2.63;;;;;;;-141.23;100.00;62281.09;5068594;27;20575;-77
2023/11/26 07:22:11;;;;;;;13.33;5.30;;;;;;;-141.23;100.00;62281.09;5100410;27;20521;-76
2023/11/26 07:24:37;;;;;;;11.90;4.80;;;;;;;-141.23;100.00;62281.09;5130642;27;20039;-76
2023/11/26 07:27:03;;;;;;;14.00;5.27;;;;;;;-141.23;100.00;62281.09;5100337;27;20052;-76
2023/11/26 07:29:28;;;;;;;10.87;4.37;;;;;;;-141.23;100.00;62281.09;5134838;27;20502;-75
2023/11/26 07:31:54;;;;;;;10.00;3.47;;;;;;;-141.23;100.00;62281.09;5100901;27;20048;-74
2023/11/26 07:34:21;;;;;;;8.27;3.50;;;;;;;-141.23;100.00;62281.09;5117203;27;20129;-71
2023/11/26 07:36:51;;;;;;;6.03;2.77;;;;;;;-141.23;100.00;62281.09;5100433;27;20418;-69
2023/11/26 07:39:17;;;;;;;15.43;5.70;;;;;;;-141.23;100.00;62281.09;5101420;27;20042;-74
2023/11/26 07:41:46;;;;;;;17.10;5.37;;;;;;;-141.23;100.00;62281.09;5139111;27;20047;-72
2023/11/26 07:44:14;;;;;;;9.02;3.97;;;;;;;-141.23;100.00;62281.09;5100414;27;20041;-76
2023/11/26 07:46:40;;;;;;;11.83;5.23;;;;;;;-141.23;100.00;62281.09;5099848;27;20539;-76
2023/11/26 07:49:07;;;;;;;13.43;5.77;;;;;;;-141.23;100.00;62281.09;5078880;28;20058;-75
2023/11/26 07:51:36;;;;;;;10.50;4.23;;;;;;;-141.23;100.00;62281.09;5061467;28;20545;-72
2023/11/26 07:54:02;;;;;;;17.63;6.23;;;;;;;-141.23;100.00;62281.09;5077832;28;20172;-75
2023/11/26 07:56:28;;;;;;;10.70;4.87;;;;;;;-141.23;100.00;62281.09;5078938;28;20123;-75
2023/11/26 07:58:55;;;;;;;11.40;4.80;;;;;;;-141.23;100.00;62281.09;5062365;28;20051;-73
2023/11/26 08:01:22;;;;;;;11.63;4.57;;;;;;;-141.23;100.00;62281.09;5063498;28;20031;-74
2023/11/26 08:03:51;;;;;;;18.17;6.37;;;;;;;-141.23;100.00;62281.09;5047263;28;20048;-74
2023/11/26 08:06:18;;;;;;;13.80;4.57;;;;;;;-141.23;100.00;62281.09;5047291;28;20397;-73
2023/11/26 08:08:44;;;;;;;9.33;4.40;;;;;;;-141.23;100.00;62281.09;5063378;28;20098;-74
2023/11/26 08:11:12;;;;;;;11.73;4.83;;;;;;;-141.23;100.00;62281.09;5046715;28;20848;-74
2023/11/26 08:13:41;;;;;;;14.67;5.23;;;;;;;-141.23;100.00;62281.09;5080381;28;20391;-74
2023/11/26 08:16:09;;;;;;;15.73;6.83;;;;;;;-141.23;100.00;62281.09;5047016;28;20167;-74
2023/11/26 08:18:41;;;;;;;15.90;5.43;;;;;;;-141.23;100.00;62281.09;5046839;28;20108;-74
2023/11/26 08:21:07;;;;;;;19.37;6.87;;;;;;;-141.23;100.00;62281.09;5097472;27;20058;-74
2023/11/26 08:23:35;;;;;;;11.47;4.87;;;;;;;-141.23;100.00;62281.09;5066416;27;20402;-75
2023/11/26 08:26:01;;;;;;;18.53;6.63;;;;;;;-141.23;100.00;62281.09;5083188;27;20043;-75
2023/11/26 08:28:28;;;;;;;14.97;6.20;;;;;;;-141.23;100.00;62281.09;5066620;27;20073;-72
2023/11/26 08:30:55;;;;;;;11.23;5.17;;;;;;;-141.23;100.00;62281.09;5066419;27;20317;-74
2023/11/26 08:33:22;;;;;;;11.00;4.23;;;;;;;-141.23;100.00;62281.09;5066422;27;20046;-78
2023/11/26 08:35:59;;;;;;;12.23;4.43;;;;;;;-141.23;100.00;62281.09;5082937;27;20130;-72
2023/11/26 08:38:25;;;;;;;15.53;5.90;;;;;;;-141.23;100.00;62281.09;5067713;27;20092;-70
2023/11/26 08:40:54;;;;;;;13.13;5.63;;;;;;;-141.23;100.00;62281.09;5065221;27;20047;-71
2023/11/26 08:43:21;;;;;;;10.90;4.27;;;;;;;-141.23;100.00;62281.09;5082985;27;20495;-73
2023/11/26 08:45:46;;;;;;;15.40;5.70;;;;;;;-141.23;100.00;62281.09;5065958;27;20031;-72
2023/11/26 08:48:14;;;;;;;18.27;6.57;;;;;;;-141.23;100.00;62281.09;5066054;27;20518;-73
2023/11/26 08:50:39;;;;;;;16.33;5.57;;;;;;;-141.23;100.00;62281.09;5082334;27;20059;-73
2023/11/26 08:53:09;;;;;;;13.50;5.87;;;;;;;-141.23;100.00;62281.09;5116727;27;20062;-71
2023/11/26 08:55:35;;;;;;;11.30;4.00;;;;;;;-141.23;100.00;62281.09;5104128;27;20039;-72
2023/11/26 08:58:06;;;;;;;14.90;5.70;;;;;;;-141.23;100.00;62281.09;5079902;27;20491;-73
2023/11/26 09:00:32;;;;;;;14.43;4.70;;;;;;;-141.23;100.00;62281.09;5063096;27;20055;-70
2023/11/26 09:02:57;;;;;;;11.33;4.33;;;;;;;-141.23;100.00;62281.09;5063205;27;20482;-70
2023/11/26 09:05:24;;;;;;;12.67;4.87;;;;;;;-141.23;100.00;62281.09;5079634;27;20411;-75
2023/11/26 09:07:50;;;;;;;9.83;3.90;;;;;;;-141.23;100.00;62281.09;5080365;27;20145;-72
2023/11/26 09:10:19;;;;;;;11.93;4.03;;;;;;;-141.23;100.00;62281.09;5062892;27;20079;-74
2023/11/26 09:12:46;;;;;;;20.00;6.67;;;;;;;-141.23;100.00;62281.09;5056063;28;20051;-71
2023/11/26 09:15:13;;;;;;;13.57;5.27;;;;;;;-141.23;100.00;62281.09;5023153;28;20159;-70
2023/11/26 09:17:39;;;;;;;18.03;5.77;;;;;;;-141.23;100.00;62281.09;5055784;28;20040;-70
2023/11/26 09:20:11;;;;;;;15.60;6.17;;;;;;;-141.23;100.00;62281.09;5072453;28;20129;-75
2023/11/26 09:22:41;;;;;;;17.57;5.40;;;;;;;-141.23;100.00;62281.09;5023292;28;20136;-73
2023/11/26 09:25:08;;;;;;;17.83;6.37;;;;;;;-141.23;100.00;62281.09;5054171;28;20047;-74
2023/11/26 09:27:38;;;;;;;18.40;6.43;;;;;;;-141.23;100.00;62281.09;5022814;28;20040;-72
2023/11/26 09:30:08;;;;;;;21.30;6.33;;;;;;;-141.23;100.00;62281.09;5072886;28;20142;-72
2023/11/26 09:32:34;;;;;;;36.93;11.53;;;;;;;-141.23;100.00;62281.09;5054950;28;20065;-72
2023/11/26 09:35:03;;;;;;;19.50;6.60;;;;;;;-141.23;100.00;62281.09;5045406;28;20360;-72
2023/11/26 09:37:32;;;;;;;22.67;7.50;;;;;;;-141.23;100.00;62281.09;5059217;28;20452;-72
2023/11/26 09:39:59;;;;;;;43.40;11.27;;;;;;;-141.23;100.00;62281.09;5042115;28;20048;-72
2023/11/26 09:42:25;;;;;;;21.40;7.17;;;;;;;-141.23;100.00;62281.09;5058518;28;20490;-80
2023/11/26 09:44:53;;;;;;;21.93;6.47;;;;;;;-141.23;100.00;62281.09;5042323;28;20131;-75
2023/11/26 09:47:19;;;;;;;26.13;7.40;;;;;;;-141.23;100.00;62281.09;5041812;28;20150;-72
2023/11/26 09:49:46;;;;;;;22.77;7.50;;;;;;;-141.23;100.00;62281.09;5048261;27;20975;-70
2023/11/26 09:52:16;;;;;;;15.00;5.23;;;;;;;-141.23;100.00;62281.09;5061750;27;20035;-67
2023/11/26 09:54:47;;;;;;;17.63;6.50;;;;;;;-141.23;100.00;62281.09;5058104;27;20098;-73
2023/11/26 09:57:14;;;;;;;;;;;;;;;-141.23;100.00;62281.09;5075545;27;20063;-71
2023/11/26 09:59:40;;;;;;;15.17;5.60;;;;;;;-141.23;100.00;62281.09;5068200;27;19927;-71
2023/11/26 10:02:12;;;;;;;21.70;6.37;;;;;;;-141.23;100.00;62281.09;5071206;28;20039;-70
2023/11/26 10:04:48;;;;;;;26.07;8.53;;;;;;;-141.23;100.00;62281.09;5073893;28;20058;-70
2023/11/26 10:07:16;;;;;;;24.97;7.83;;;;;;;-141.23;100.00;62281.09;5008290;28;20107;-71
2023/11/26 10:10:02;;;;;;;17.80;6.27;;;;;;;-141.23;100.00;62281.09;5052150;27;20109;-74
2023/11/26 10:12:31;;;;;;;25.27;7.90;;;;;;;-141.23;100.00;62281.09;5061770;27;20047;-73
2023/11/26 10:15:09;;;;;;;14.47;4.93;;;;;;;-141.23;100.00;62281.09;5094642;27;20042;-76
2023/11/26 10:17:36;;;;;;;28.73;8.20;;;;;;;-141.23;100.00;62281.09;5078314;27;20055;-71
2023/11/26 10:20:19;;;;;;;18.07;6.50;;;;;;;-141.23;100.00;62281.09;5077413;27;20054;-71
2023/11/26 10:22:46;;;;;;;23.93;8.23;;;;;;;-141.23;100.00;62281.09;5060828;27;20059;-74
2023/11/26 10:25:13;;;;;;;22.43;7.03;;;;;;;-141.23;100.00;62281.09;5075619;27;20039;-74
2023/11/26 10:27:39;;;;;;;21.13;8.10;;;;;;;-141.23;100.00;62281.09;5077625;27;20059;-71
2023/11/26 10:30:08;;;;;;;19.03;7.17;;;;;;;-141.23;100.00;62281.09;5073834;28;20052;-75
2023/11/26 10:32:55;;;;;;;19.80;6.83;;;;;;;-141.23;100.00;62281.09;5045916;27;20050;-72
2023/11/26 10:35:23;;;;;;;21.53;7.43;;;;;;;-141.23;100.00;62281.09;5077002;27;20051;-73
2023/11/26 10:38:08;;;;;;;23.53;7.67;;;;;;;-141.23;100.00;62281.09;5076966;27;20462;-71
2023/11/26 10:40:35;;;;;;;23.03;7.37;;;;;;;-141.23;100.00;62281.09;5071285;27;20044;-72
2023/11/26 10:43:07;;;;;;;27.47;7.80;;;;;;;-141.23;100.00;62281.09;5076843;27;20063;-74
2023/11/26 10:45:34;;;;;;;22.10;8.23;;;;;;;-141.23;100.00;62281.09;5062473;27;20050;-71
2023/11/26 10:48:10;;;;;;;21.40;8.17;;;;;;;-141.23;100.00;62281.09;5072536;28;20076;-71
2023/11/26 10:51:08;;;;;;;19.47;7.30;;;;;;;-141.23;100.00;62281.09;5089982;28;20109;-71
2023/11/26 10:53:51;;;;;;;34.53;10.77;;;;;;;-141.23;100.00;62281.09;5042236;28;20105;-71
2023/11/26 10:56:19;;;;;;;24.30;9.27;;;;;;;-141.23;100.00;62281.09;5029592;28;20054;-73
2023/11/26 10:58:48;;;;;;;26.73;8.97;;;;;;;-141.23;100.00;62281.09;5013327;28;20060;-73
2023/11/26 11:01:14;;;;;;;25.90;8.57;;;;;;;-141.23;100.00;62281.09;5029605;28;20049;-73
2023/11/26 11:03:41;;;;;;;33.27;10.17;;;;;;;-141.23;100.00;62281.09;5012725;28;20477;-74
2023/11/26 11:06:08;;;;;;;22.70;8.17;;;;;;;-141.23;100.00;62281.09;4996327;28;20145;-71